メインページ
METAR-TAF:

METAR-TAF

空港 :

ポートスーダン, スーダン

緯度: 19-26N, 経度: 037-14E, 海抜: 138m

現時点の気象観測

当レポートは4時間6分前の17:00(UTC)に作成
東/北東の風 7kt
気温 40°C
湿度 30%
気圧 1004 hPa
視程10km以上
高度3000ftの雲は散在している

METAR: HSPN 211700Z 06007KT 9999 SCT030 40/19 Q1004

時間: 00:06 (21:06 UTC)

予報

当レポートは4時間6分前の17:00(UTC)に作成
予報は21日の 18時(UTC)から 22日の 24時(UTC)まで有効
北西の風 8kt
視程10km以上
高度3000ftの雲は散在している
高度13000ftの千切れ雲あり
21日の 18時(UTC)から 21日の 22時(UTC)まで一時的に
視程: 6000m
高度13000ftの千切れ雲あり
にわか雨

TAF: HSPN 211700Z 2118/2224 32008KT 9999 SCT030 BKN130 TEMPO 2118/2122 6000 SHRA BKN130

4,000以上の空港の気象観測と天気予報(METAR報とTAF報)

利用可能な観測所は地図上に黄色い丸と赤い丸で示す。

丸の上にカーソルを重ねると観測所名を参照できる。

次にクリックすると気象観測と天気予報を参照できる。

マップの切り替え:黒色「×」印の緑ボタンをクリックして拡大、「-」印の緑ボタンをクリックして縮小、緑色の三角印をクリックして隣りの地図に切り替え


METAR-TAF: